sensor_id;sensor_type;location;lat;lon;timestamp;temperature;humidity
5796;DHT22;2924;51.458;7.046;2022-11-15T00:00:19;10.80;99.90
5796;DHT22;2924;51.458;7.046;2022-11-15T00:02:45;10.80;99.90
5796;DHT22;2924;51.458;7.046;2022-11-15T00:05:10;10.80;99.90
5796;DHT22;2924;51.458;7.046;2022-11-15T00:07:36;10.90;99.90
5796;DHT22;2924;51.458;7.046;2022-11-15T00:10:02;10.90;99.90
5796;DHT22;2924;51.458;7.046;2022-11-15T00:12:28;10.90;99.90
5796;DHT22;2924;51.458;7.046;2022-11-15T00:14:54;11.00;99.90
5796;DHT22;2924;51.458;7.046;2022-11-15T00:17:20;11.00;99.90
5796;DHT22;2924;51.458;7.046;2022-11-15T00:19:45;11.00;99.90
5796;DHT22;2924;51.458;7.046;2022-11-15T00:22:11;11.10;99.90
5796;DHT22;2924;51.458;7.046;2022-11-15T00:24:36;11.00;99.90
5796;DHT22;2924;51.458;7.046;2022-11-15T00:27:02;11.00;99.90
5796;DHT22;2924;51.458;7.046;2022-11-15T00:29:28;11.20;99.90
5796;DHT22;2924;51.458;7.046;2022-11-15T00:31:54;11.20;99.90
5796;DHT22;2924;51.458;7.046;2022-11-15T00:34:19;11.10;99.90
5796;DHT22;2924;51.458;7.046;2022-11-15T00:36:45;11.10;99.90
5796;DHT22;2924;51.458;7.046;2022-11-15T00:39:11;11.20;99.90
5796;DHT22;2924;51.458;7.046;2022-11-15T00:41:36;11.20;99.90
5796;DHT22;2924;51.458;7.046;2022-11-15T00:44:02;11.10;99.90
5796;DHT22;2924;51.458;7.046;2022-11-15T00:46:28;11.20;99.90
5796;DHT22;2924;51.458;7.046;2022-11-15T00:48:53;11.20;99.90
5796;DHT22;2924;51.458;7.046;2022-11-15T00:51:19;11.40;99.90
5796;DHT22;2924;51.458;7.046;2022-11-15T00:53:45;11.50;99.90
5796;DHT22;2924;51.458;7.046;2022-11-15T00:56:10;11.50;99.90
5796;DHT22;2924;51.458;7.046;2022-11-15T00:58:36;11.50;99.90
5796;DHT22;2924;51.458;7.046;2022-11-15T01:01:09;11.60;99.90
5796;DHT22;2924;51.458;7.046;2022-11-15T01:03:38;11.70;99.90
5796;DHT22;2924;51.458;7.046;2022-11-15T01:06:04;11.70;99.90
5796;DHT22;2924;51.458;7.046;2022-11-15T01:08:30;11.60;99.90
5796;DHT22;2924;51.458;7.046;2022-11-15T01:11:03;11.70;99.90
5796;DHT22;2924;51.458;7.046;2022-11-15T01:13:32;11.80;99.90
5796;DHT22;2924;51.458;7.046;2022-11-15T01:15:59;11.80;99.90
5796;DHT22;2924;51.458;7.046;2022-11-15T01:18:25;11.80;99.90
5796;DHT22;2924;51.458;7.046;2022-11-15T01:20:50;11.80;99.90
5796;DHT22;2924;51.458;7.046;2022-11-15T01:23:16;11.80;99.90
5796;DHT22;2924;51.458;7.046;2022-11-15T01:25:42;11.80;99.90
5796;DHT22;2924;51.458;7.046;2022-11-15T01:28:07;11.80;99.90
5796;DHT22;2924;51.458;7.046;2022-11-15T01:30:33;11.90;99.90
5796;DHT22;2924;51.458;7.046;2022-11-15T01:32:59;12.00;99.90
5796;DHT22;2924;51.458;7.046;2022-11-15T01:35:24;12.00;99.90
5796;DHT22;2924;51.458;7.046;2022-11-15T01:37:50;11.90;99.90
5796;DHT22;2924;51.458;7.046;2022-11-15T01:40:16;11.90;99.90
5796;DHT22;2924;51.458;7.046;2022-11-15T01:42:41;11.90;99.90
5796;DHT22;2924;51.458;7.046;2022-11-15T01:45:14;12.00;99.90
5796;DHT22;2924;51.458;7.046;2022-11-15T01:47:48;11.90;99.90
5796;DHT22;2924;51.458;7.046;2022-11-15T01:50:20;11.90;99.90
5796;DHT22;2924;51.458;7.046;2022-11-15T01:52:46;11.90;99.90
5796;DHT22;2924;51.458;7.046;2022-11-15T01:55:19;11.90;99.90
5796;DHT22;2924;51.458;7.046;2022-11-15T01:57:47;12.00;99.90
5796;DHT22;2924;51.458;7.046;2022-11-15T02:00:15;12.10;99.90
5796;DHT22;2924;51.458;7.046;2022-11-15T02:02:41;12.10;99.90
5796;DHT22;2924;51.458;7.046;2022-11-15T02:05:07;12.10;99.90
5796;DHT22;2924;51.458;7.046;2022-11-15T02:07:35;12.10;99.90
5796;DHT22;2924;51.458;7.046;2022-11-15T02:10:12;12.10;99.90
5796;DHT22;2924;51.458;7.046;2022-11-15T02:12:38;12.10;99.90
5796;DHT22;2924;51.458;7.046;2022-11-15T02:15:05;12.10;99.90
5796;DHT22;2924;51.458;7.046;2022-11-15T02:29:11;12.20;99.90
5796;DHT22;2924;51.458;7.046;2022-11-15T02:32:00;12.10;99.90
5796;DHT22;2924;51.458;7.046;2022-11-15T02:37:16;12.20;99.90
5796;DHT22;2924;51.458;7.046;2022-11-15T02:40:01;12.10;99.90
5796;DHT22;2924;51.458;7.046;2022-11-15T02:42:35;12.00;99.90
5796;DHT22;2924;51.458;7.046;2022-11-15T02:45:26;11.90;99.90
5796;DHT22;2924;51.458;7.046;2022-11-15T02:47:55;11.90;99.90
5796;DHT22;2924;51.458;7.046;2022-11-15T02:50:25;11.90;99.90
5796;DHT22;2924;51.458;7.046;2022-11-15T02:52:52;11.90;99.90
5796;DHT22;2924;51.458;7.046;2022-11-15T02:55:38;11.90;99.90
5796;DHT22;2924;51.458;7.046;2022-11-15T03:06:38;11.90;99.90
5796;DHT22;2924;51.458;7.046;2022-11-15T03:09:16;11.90;99.90
5796;DHT22;2924;51.458;7.046;2022-11-15T03:11:50;11.90;99.90
5796;DHT22;2924;51.458;7.046;2022-11-15T03:15:27;12.00;99.90
5796;DHT22;2924;51.458;7.046;2022-11-15T03:17:28;12.00;99.90
5796;DHT22;2924;51.458;7.046;2022-11-15T03:19:57;12.00;99.90
5796;DHT22;2924;51.458;7.046;2022-11-15T03:22:25;11.90;99.90
5796;DHT22;2924;51.458;7.046;2022-11-15T03:24:55;12.00;99.90
5796;DHT22;2924;51.458;7.046;2022-11-15T03:27:25;12.00;99.90
5796;DHT22;2924;51.458;7.046;2022-11-15T03:29:56;12.10;99.90
5796;DHT22;2924;51.458;7.046;2022-11-15T03:32:31;12.10;99.90
5796;DHT22;2924;51.458;7.046;2022-11-15T03:35:22;12.20;99.90
5796;DHT22;2924;51.458;7.046;2022-11-15T03:37:59;12.20;99.90
5796;DHT22;2924;51.458;7.046;2022-11-15T03:40:33;12.20;99.90
5796;DHT22;2924;51.458;7.046;2022-11-15T03:43:15;12.30;99.90
5796;DHT22;2924;51.458;7.046;2022-11-15T03:46:12;12.40;99.90
5796;DHT22;2924;51.458;7.046;2022-11-15T03:48:56;12.40;99.90
5796;DHT22;2924;51.458;7.046;2022-11-15T03:51:22;12.40;99.90
5796;DHT22;2924;51.458;7.046;2022-11-15T03:53:48;12.40;99.90
5796;DHT22;2924;51.458;7.046;2022-11-15T03:56:14;12.40;99.90
5796;DHT22;2924;51.458;7.046;2022-11-15T03:58:39;12.40;99.90
5796;DHT22;2924;51.458;7.046;2022-11-15T04:01:05;12.30;99.90
5796;DHT22;2924;51.458;7.046;2022-11-15T04:03:30;12.40;99.90
5796;DHT22;2924;51.458;7.046;2022-11-15T04:05:56;12.30;99.90
5796;DHT22;2924;51.458;7.046;2022-11-15T04:08:22;12.20;99.90
5796;DHT22;2924;51.458;7.046;2022-11-15T04:10:49;12.30;99.90
5796;DHT22;2924;51.458;7.046;2022-11-15T04:13:15;12.30;99.90
5796;DHT22;2924;51.458;7.046;2022-11-15T04:15:40;12.30;99.90
5796;DHT22;2924;51.458;7.046;2022-11-15T04:18:06;12.30;99.90
5796;DHT22;2924;51.458;7.046;2022-11-15T04:20:32;12.30;99.90
5796;DHT22;2924;51.458;7.046;2022-11-15T04:23:21;12.30;99.90
5796;DHT22;2924;51.458;7.046;2022-11-15T04:26:11;12.30;99.90
5796;DHT22;2924;51.458;7.046;2022-11-15T04:28:38;12.30;99.90
5796;DHT22;2924;51.458;7.046;2022-11-15T04:31:23;12.30;99.90
5796;DHT22;2924;51.458;7.046;2022-11-15T04:33:49;12.40;99.90
5796;DHT22;2924;51.458;7.046;2022-11-15T04:36:15;12.40;99.90
5796;DHT22;2924;51.458;7.046;2022-11-15T04:38:59;12.40;99.90
5796;DHT22;2924;51.458;7.046;2022-11-15T04:41:24;12.30;99.90
5796;DHT22;2924;51.458;7.046;2022-11-15T04:43:50;12.40;99.90
5796;DHT22;2924;51.458;7.046;2022-11-15T04:46:16;12.40;99.90
5796;DHT22;2924;51.458;7.046;2022-11-15T04:48:41;12.30;99.90
5796;DHT22;2924;51.458;7.046;2022-11-15T04:51:07;12.40;99.90
5796;DHT22;2924;51.458;7.046;2022-11-15T04:53:33;12.40;99.90
5796;DHT22;2924;51.458;7.046;2022-11-15T04:55:59;12.40;99.90
5796;DHT22;2924;51.458;7.046;2022-11-15T04:58:24;12.30;99.90
5796;DHT22;2924;51.458;7.046;2022-11-15T05:00:50;12.30;99.90
5796;DHT22;2924;51.458;7.046;2022-11-15T05:03:16;12.30;99.90
5796;DHT22;2924;51.458;7.046;2022-11-15T05:06:00;12.30;99.90
5796;DHT22;2924;51.458;7.046;2022-11-15T05:08:25;12.30;99.90
5796;DHT22;2924;51.458;7.046;2022-11-15T05:10:51;12.30;99.90
5796;DHT22;2924;51.458;7.046;2022-11-15T05:13:17;12.30;99.90
5796;DHT22;2924;51.458;7.046;2022-11-15T05:15:42;12.30;99.90
5796;DHT22;2924;51.458;7.046;2022-11-15T05:18:08;12.20;99.90
5796;DHT22;2924;51.458;7.046;2022-11-15T05:20:34;12.20;99.90
5796;DHT22;2924;51.458;7.046;2022-11-15T05:23:00;12.20;99.90
5796;DHT22;2924;51.458;7.046;2022-11-15T05:25:25;12.20;99.90
5796;DHT22;2924;51.458;7.046;2022-11-15T05:27:51;12.10;99.90
5796;DHT22;2924;51.458;7.046;2022-11-15T05:30:17;12.00;99.90
5796;DHT22;2924;51.458;7.046;2022-11-15T05:32:44;11.90;99.90
5796;DHT22;2924;51.458;7.046;2022-11-15T05:35:13;11.80;99.90
5796;DHT22;2924;51.458;7.046;2022-11-15T05:37:40;11.80;99.90
5796;DHT22;2924;51.458;7.046;2022-11-15T05:40:07;11.70;99.90
5796;DHT22;2924;51.458;7.046;2022-11-15T05:42:33;11.60;99.90
5796;DHT22;2924;51.458;7.046;2022-11-15T05:44:59;11.60;99.90
5796;DHT22;2924;51.458;7.046;2022-11-15T05:47:27;11.50;99.90
5796;DHT22;2924;51.458;7.046;2022-11-15T05:49:55;11.50;99.90
5796;DHT22;2924;51.458;7.046;2022-11-15T05:52:24;11.40;99.90
5796;DHT22;2924;51.458;7.046;2022-11-15T05:54:51;11.40;99.90
5796;DHT22;2924;51.458;7.046;2022-11-15T05:57:17;11.50;99.90
5796;DHT22;2924;51.458;7.046;2022-11-15T05:59:43;11.50;99.90
5796;DHT22;2924;51.458;7.046;2022-11-15T06:02:10;11.40;99.90
5796;DHT22;2924;51.458;7.046;2022-11-15T06:04:36;11.40;99.90
5796;DHT22;2924;51.458;7.046;2022-11-15T06:07:01;11.50;99.90
5796;DHT22;2924;51.458;7.046;2022-11-15T06:09:27;11.40;99.90
5796;DHT22;2924;51.458;7.046;2022-11-15T06:11:53;11.50;99.90
5796;DHT22;2924;51.458;7.046;2022-11-15T06:14:18;11.40;99.90
5796;DHT22;2924;51.458;7.046;2022-11-15T06:16:44;11.50;99.90
5796;DHT22;2924;51.458;7.046;2022-11-15T06:19:10;11.50;99.90
5796;DHT22;2924;51.458;7.046;2022-11-15T06:21:35;11.40;99.90
5796;DHT22;2924;51.458;7.046;2022-11-15T06:24:01;11.40;99.90
5796;DHT22;2924;51.458;7.046;2022-11-15T06:26:27;11.50;99.90
5796;DHT22;2924;51.458;7.046;2022-11-15T06:28:52;11.50;99.90
5796;DHT22;2924;51.458;7.046;2022-11-15T06:31:18;11.50;99.90
5796;DHT22;2924;51.458;7.046;2022-11-15T06:33:44;11.50;99.90
5796;DHT22;2924;51.458;7.046;2022-11-15T06:36:12;11.50;99.90
5796;DHT22;2924;51.458;7.046;2022-11-15T06:38:45;11.50;99.90
5796;DHT22;2924;51.458;7.046;2022-11-15T06:41:11;11.50;99.90
5796;DHT22;2924;51.458;7.046;2022-11-15T06:43:38;11.50;99.90
5796;DHT22;2924;51.458;7.046;2022-11-15T06:46:05;11.50;99.90
5796;DHT22;2924;51.458;7.046;2022-11-15T06:48:32;11.60;99.90
5796;DHT22;2924;51.458;7.046;2022-11-15T06:50:59;11.70;99.90
5796;DHT22;2924;51.458;7.046;2022-11-15T06:53:25;11.70;99.90
5796;DHT22;2924;51.458;7.046;2022-11-15T06:55:52;11.70;99.90
5796;DHT22;2924;51.458;7.046;2022-11-15T06:58:18;11.80;99.90
5796;DHT22;2924;51.458;7.046;2022-11-15T07:00:44;11.80;99.90
5796;DHT22;2924;51.458;7.046;2022-11-15T07:03:10;11.90;99.90
5796;DHT22;2924;51.458;7.046;2022-11-15T07:05:36;11.90;99.90
5796;DHT22;2924;51.458;7.046;2022-11-15T07:08:02;11.80;99.90
5796;DHT22;2924;51.458;7.046;2022-11-15T07:10:28;11.90;99.90
5796;DHT22;2924;51.458;7.046;2022-11-15T07:12:55;11.90;99.90
5796;DHT22;2924;51.458;7.046;2022-11-15T07:15:23;11.90;99.90
5796;DHT22;2924;51.458;7.046;2022-11-15T07:17:49;11.90;99.90
5796;DHT22;2924;51.458;7.046;2022-11-15T07:20:16;12.00;99.90
5796;DHT22;2924;51.458;7.046;2022-11-15T07:22:41;12.10;99.90
5796;DHT22;2924;51.458;7.046;2022-11-15T07:25:08;12.20;99.90
5796;DHT22;2924;51.458;7.046;2022-11-15T07:27:34;12.20;99.90
5796;DHT22;2924;51.458;7.046;2022-11-15T07:30:00;12.30;99.90
5796;DHT22;2924;51.458;7.046;2022-11-15T07:32:26;12.30;99.90
5796;DHT22;2924;51.458;7.046;2022-11-15T07:34:51;12.30;99.90
5796;DHT22;2924;51.458;7.046;2022-11-15T07:37:17;12.30;99.90
5796;DHT22;2924;51.458;7.046;2022-11-15T07:39:43;12.30;99.90
5796;DHT22;2924;51.458;7.046;2022-11-15T07:42:09;12.30;99.90
5796;DHT22;2924;51.458;7.046;2022-11-15T07:44:53;12.30;99.90
5796;DHT22;2924;51.458;7.046;2022-11-15T07:47:19;12.30;99.90
5796;DHT22;2924;51.458;7.046;2022-11-15T07:49:44;12.30;99.90
5796;DHT22;2924;51.458;7.046;2022-11-15T07:52:11;12.30;99.90
5796;DHT22;2924;51.458;7.046;2022-11-15T07:54:37;12.30;99.90
5796;DHT22;2924;51.458;7.046;2022-11-15T07:57:03;12.20;99.90
5796;DHT22;2924;51.458;7.046;2022-11-15T07:59:28;12.20;99.90
5796;DHT22;2924;51.458;7.046;2022-11-15T08:01:54;12.20;99.90
5796;DHT22;2924;51.458;7.046;2022-11-15T08:04:20;12.20;99.90
5796;DHT22;2924;51.458;7.046;2022-11-15T08:06:45;12.30;99.90
5796;DHT22;2924;51.458;7.046;2022-11-15T08:09:11;12.40;99.90
5796;DHT22;2924;51.458;7.046;2022-11-15T08:11:37;12.70;99.90
5796;DHT22;2924;51.458;7.046;2022-11-15T08:14:02;13.00;99.90
5796;DHT22;2924;51.458;7.046;2022-11-15T08:16:28;13.20;99.90
5796;DHT22;2924;51.458;7.046;2022-11-15T08:18:54;13.20;99.90
5796;DHT22;2924;51.458;7.046;2022-11-15T08:21:20;13.30;99.90
5796;DHT22;2924;51.458;7.046;2022-11-15T08:23:46;13.20;99.90
5796;DHT22;2924;51.458;7.046;2022-11-15T08:26:12;13.20;99.90
5796;DHT22;2924;51.458;7.046;2022-11-15T08:28:38;13.40;99.90
5796;DHT22;2924;51.458;7.046;2022-11-15T08:31:04;13.60;99.90
5796;DHT22;2924;51.458;7.046;2022-11-15T08:33:31;13.90;99.90
5796;DHT22;2924;51.458;7.046;2022-11-15T08:35:57;13.80;99.90
5796;DHT22;2924;51.458;7.046;2022-11-15T08:38:23;13.70;99.90
5796;DHT22;2924;51.458;7.046;2022-11-15T08:40:52;13.70;99.90
5796;DHT22;2924;51.458;7.046;2022-11-15T08:43:18;13.80;99.90
5796;DHT22;2924;51.458;7.046;2022-11-15T08:45:44;13.70;99.90
5796;DHT22;2924;51.458;7.046;2022-11-15T08:48:10;13.60;99.90
5796;DHT22;2924;51.458;7.046;2022-11-15T08:50:35;13.60;99.90
5796;DHT22;2924;51.458;7.046;2022-11-15T08:53:05;13.60;99.90
5796;DHT22;2924;51.458;7.046;2022-11-15T08:55:31;13.50;99.90
5796;DHT22;2924;51.458;7.046;2022-11-15T08:57:58;13.50;99.90
5796;DHT22;2924;51.458;7.046;2022-11-15T09:00:23;13.40;99.90
5796;DHT22;2924;51.458;7.046;2022-11-15T09:02:49;13.30;99.90
5796;DHT22;2924;51.458;7.046;2022-11-15T09:05:14;13.20;99.90
5796;DHT22;2924;51.458;7.046;2022-11-15T09:07:44;13.20;99.90
5796;DHT22;2924;51.458;7.046;2022-11-15T09:10:09;13.10;99.90
5796;DHT22;2924;51.458;7.046;2022-11-15T09:12:35;13.30;99.90
5796;DHT22;2924;51.458;7.046;2022-11-15T09:15:01;13.40;99.90
5796;DHT22;2924;51.458;7.046;2022-11-15T09:17:27;13.40;99.90
5796;DHT22;2924;51.458;7.046;2022-11-15T09:19:52;13.50;99.90
5796;DHT22;2924;51.458;7.046;2022-11-15T09:22:18;13.40;99.90
5796;DHT22;2924;51.458;7.046;2022-11-15T09:24:44;13.30;99.90
5796;DHT22;2924;51.458;7.046;2022-11-15T09:27:10;13.30;99.90
5796;DHT22;2924;51.458;7.046;2022-11-15T09:29:36;13.30;99.90
5796;DHT22;2924;51.458;7.046;2022-11-15T09:32:01;13.40;99.90
5796;DHT22;2924;51.458;7.046;2022-11-15T09:34:27;13.50;99.90
5796;DHT22;2924;51.458;7.046;2022-11-15T09:36:53;13.70;99.90
5796;DHT22;2924;51.458;7.046;2022-11-15T09:39:18;13.80;99.90
5796;DHT22;2924;51.458;7.046;2022-11-15T09:42:06;13.90;99.90
5796;DHT22;2924;51.458;7.046;2022-11-15T09:47:43;14.00;99.90
5796;DHT22;2924;51.458;7.046;2022-11-15T09:50:15;14.10;99.90
5796;DHT22;2924;51.458;7.046;2022-11-15T09:52:43;14.30;99.90
5796;DHT22;2924;51.458;7.046;2022-11-15T09:55:11;14.40;99.90
5796;DHT22;2924;51.458;7.046;2022-11-15T09:58:35;14.30;99.90
5796;DHT22;2924;51.458;7.046;2022-11-15T10:00:51;14.20;99.90
5796;DHT22;2924;51.458;7.046;2022-11-15T10:03:34;14.00;99.90
5796;DHT22;2924;51.458;7.046;2022-11-15T10:06:04;13.90;99.90
5796;DHT22;2924;51.458;7.046;2022-11-15T10:08:50;13.80;99.90
5796;DHT22;2924;51.458;7.046;2022-11-15T10:11:25;13.90;99.90
5796;DHT22;2924;51.458;7.046;2022-11-15T10:13:54;13.90;99.90
5796;DHT22;2924;51.458;7.046;2022-11-15T10:19:14;13.60;99.90
5796;DHT22;2924;51.458;7.046;2022-11-15T10:24:26;13.70;99.90
5796;DHT22;2924;51.458;7.046;2022-11-15T10:26:55;13.80;99.90
5796;DHT22;2924;51.458;7.046;2022-11-15T10:29:23;13.80;99.90
5796;DHT22;2924;51.458;7.046;2022-11-15T10:31:49;13.90;99.90
5796;DHT22;2924;51.458;7.046;2022-11-15T10:34:17;13.90;99.90
5796;DHT22;2924;51.458;7.046;2022-11-15T10:37:02;14.00;99.90
5796;DHT22;2924;51.458;7.046;2022-11-15T10:39:28;14.10;99.90
5796;DHT22;2924;51.458;7.046;2022-11-15T10:41:54;14.20;99.90
5796;DHT22;2924;51.458;7.046;2022-11-15T10:44:22;14.50;99.90
5796;DHT22;2924;51.458;7.046;2022-11-15T10:47:21;14.60;99.90
5796;DHT22;2924;51.458;7.046;2022-11-15T10:49:55;14.70;99.90
5796;DHT22;2924;51.458;7.046;2022-11-15T10:52:21;14.70;99.90
5796;DHT22;2924;51.458;7.046;2022-11-15T10:55:01;14.70;99.90
5796;DHT22;2924;51.458;7.046;2022-11-15T10:57:37;14.70;99.90
5796;DHT22;2924;51.458;7.046;2022-11-15T11:03:06;15.10;99.90
5796;DHT22;2924;51.458;7.046;2022-11-15T11:05:39;15.10;99.90
5796;DHT22;2924;51.458;7.046;2022-11-15T11:10:55;15.10;99.90
5796;DHT22;2924;51.458;7.046;2022-11-15T11:13:26;15.20;99.90
5796;DHT22;2924;51.458;7.046;2022-11-15T11:21:49;15.10;99.90
5796;DHT22;2924;51.458;7.046;2022-11-15T11:24:47;15.20;99.90
5796;DHT22;2924;51.458;7.046;2022-11-15T11:33:05;15.40;99.90
5796;DHT22;2924;51.458;7.046;2022-11-15T11:35:53;15.30;99.90
5796;DHT22;2924;51.458;7.046;2022-11-15T11:41:46;15.50;99.90
5796;DHT22;2924;51.458;7.046;2022-11-15T11:44:24;15.90;99.90
5796;DHT22;2924;51.458;7.046;2022-11-15T11:47:15;16.00;99.90
5796;DHT22;2924;51.458;7.046;2022-11-15T11:49:54;16.10;99.90
5796;DHT22;2924;51.458;7.046;2022-11-15T11:52:34;15.90;99.90
5796;DHT22;2924;51.458;7.046;2022-11-15T11:55:16;15.40;99.90
5796;DHT22;2924;51.458;7.046;2022-11-15T12:00:45;15.10;99.90
5796;DHT22;2924;51.458;7.046;2022-11-15T12:03:19;15.20;99.90
5796;DHT22;2924;51.458;7.046;2022-11-15T12:06:16;15.30;99.90
5796;DHT22;2924;51.458;7.046;2022-11-15T12:09:11;15.40;99.90
5796;DHT22;2924;51.458;7.046;2022-11-15T12:15:11;15.60;99.90
5796;DHT22;2924;51.458;7.046;2022-11-15T12:17:40;15.40;99.90
5796;DHT22;2924;51.458;7.046;2022-11-15T12:20:27;15.10;99.90
5796;DHT22;2924;51.458;7.046;2022-11-15T12:23:10;15.10;99.90
5796;DHT22;2924;51.458;7.046;2022-11-15T12:26:00;15.10;99.90
5796;DHT22;2924;51.458;7.046;2022-11-15T12:28:54;14.90;99.90
5796;DHT22;2924;51.458;7.046;2022-11-15T12:33:58;14.90;99.90
5796;DHT22;2924;51.458;7.046;2022-11-15T12:39:02;14.90;99.90
5796;DHT22;2924;51.458;7.046;2022-11-15T12:41:33;14.80;99.90
5796;DHT22;2924;51.458;7.046;2022-11-15T12:44:00;14.90;99.90
5796;DHT22;2924;51.458;7.046;2022-11-15T12:59:53;15.40;99.70
5796;DHT22;2924;51.458;7.046;2022-11-15T13:20:15;15.30;99.90
5796;DHT22;2924;51.458;7.046;2022-11-15T13:22:47;15.30;99.90
5796;DHT22;2924;51.458;7.046;2022-11-15T13:30:51;14.80;99.90
5796;DHT22;2924;51.458;7.046;2022-11-15T13:33:25;14.50;99.90
5796;DHT22;2924;51.458;7.046;2022-11-15T13:35:56;14.40;99.90
5796;DHT22;2924;51.458;7.046;2022-11-15T13:38:33;14.30;99.90
5796;DHT22;2924;51.458;7.046;2022-11-15T13:41:00;14.20;99.90
5796;DHT22;2924;51.458;7.046;2022-11-15T13:43:36;14.10;99.90
5796;DHT22;2924;51.458;7.046;2022-11-15T13:48:42;14.00;99.90
5796;DHT22;2924;51.458;7.046;2022-11-15T13:51:38;13.90;99.90
5796;DHT22;2924;51.458;7.046;2022-11-15T13:57:13;13.80;99.90
5796;DHT22;2924;51.458;7.046;2022-11-15T14:00:04;13.80;99.90
5796;DHT22;2924;51.458;7.046;2022-11-15T14:02:32;13.80;99.90
5796;DHT22;2924;51.458;7.046;2022-11-15T14:05:22;13.80;99.90
5796;DHT22;2924;51.458;7.046;2022-11-15T14:08:41;13.80;99.90
5796;DHT22;2924;51.458;7.046;2022-11-15T14:10:48;13.80;99.90
5796;DHT22;2924;51.458;7.046;2022-11-15T14:13:34;13.80;99.90
5796;DHT22;2924;51.458;7.046;2022-11-15T14:16:13;13.80;99.90
5796;DHT22;2924;51.458;7.046;2022-11-15T14:18:57;13.80;99.90
5796;DHT22;2924;51.458;7.046;2022-11-15T14:21:23;13.80;99.90
5796;DHT22;2924;51.458;7.046;2022-11-15T14:23:49;13.80;99.90
5796;DHT22;2924;51.458;7.046;2022-11-15T14:26:30;13.70;99.90
5796;DHT22;2924;51.458;7.046;2022-11-15T14:28:57;13.70;99.90
5796;DHT22;2924;51.458;7.046;2022-11-15T14:31:22;13.70;99.90
5796;DHT22;2924;51.458;7.046;2022-11-15T14:33:48;13.70;99.90
5796;DHT22;2924;51.458;7.046;2022-11-15T14:36:17;13.60;99.90
5796;DHT22;2924;51.458;7.046;2022-11-15T14:38:43;13.60;99.90
5796;DHT22;2924;51.458;7.046;2022-11-15T14:41:24;13.50;99.90
5796;DHT22;2924;51.458;7.046;2022-11-15T14:43:51;13.60;99.90
5796;DHT22;2924;51.458;7.046;2022-11-15T14:46:17;13.50;99.90
5796;DHT22;2924;51.458;7.046;2022-11-15T14:48:43;13.50;99.90
5796;DHT22;2924;51.458;7.046;2022-11-15T14:51:13;13.50;99.90
5796;DHT22;2924;51.458;7.046;2022-11-15T14:53:40;13.50;99.90
5796;DHT22;2924;51.458;7.046;2022-11-15T14:56:07;13.40;99.90
5796;DHT22;2924;51.458;7.046;2022-11-15T14:58:32;13.40;99.90
5796;DHT22;2924;51.458;7.046;2022-11-15T15:00:58;13.40;99.90
5796;DHT22;2924;51.458;7.046;2022-11-15T15:03:24;13.40;99.90
5796;DHT22;2924;51.458;7.046;2022-11-15T15:05:49;13.40;99.90
5796;DHT22;2924;51.458;7.046;2022-11-15T15:08:15;13.40;99.90
5796;DHT22;2924;51.458;7.046;2022-11-15T15:10:43;13.30;99.90
5796;DHT22;2924;51.458;7.046;2022-11-15T15:13:22;13.30;99.90
5796;DHT22;2924;51.458;7.046;2022-11-15T15:15:50;13.30;99.90
5796;DHT22;2924;51.458;7.046;2022-11-15T15:18:16;13.30;99.90
5796;DHT22;2924;51.458;7.046;2022-11-15T15:20:44;13.30;99.90
5796;DHT22;2924;51.458;7.046;2022-11-15T15:23:16;13.20;99.90
5796;DHT22;2924;51.458;7.046;2022-11-15T15:25:43;13.20;99.90
5796;DHT22;2924;51.458;7.046;2022-11-15T15:28:09;13.20;99.90
5796;DHT22;2924;51.458;7.046;2022-11-15T15:30:34;13.20;99.90
5796;DHT22;2924;51.458;7.046;2022-11-15T15:33:00;13.20;99.90
5796;DHT22;2924;51.458;7.046;2022-11-15T15:35:29;13.20;99.90
5796;DHT22;2924;51.458;7.046;2022-11-15T15:37:56;13.10;99.90
5796;DHT22;2924;51.458;7.046;2022-11-15T15:40:23;13.10;99.90
5796;DHT22;2924;51.458;7.046;2022-11-15T15:42:49;13.10;99.90
5796;DHT22;2924;51.458;7.046;2022-11-15T15:45:16;13.10;99.90
5796;DHT22;2924;51.458;7.046;2022-11-15T15:47:43;13.10;99.90
5796;DHT22;2924;51.458;7.046;2022-11-15T15:52:49;13.20;99.90
5796;DHT22;2924;51.458;7.046;2022-11-15T15:55:15;13.10;99.90
5796;DHT22;2924;51.458;7.046;2022-11-15T15:57:41;13.10;99.90
5796;DHT22;2924;51.458;7.046;2022-11-15T16:00:08;13.10;99.90
5796;DHT22;2924;51.458;7.046;2022-11-15T16:02:34;13.10;99.90
5796;DHT22;2924;51.458;7.046;2022-11-15T16:04:59;13.10;99.90
5796;DHT22;2924;51.458;7.046;2022-11-15T16:07:25;13.10;99.90
5796;DHT22;2924;51.458;7.046;2022-11-15T16:09:51;13.10;99.90
5796;DHT22;2924;51.458;7.046;2022-11-15T16:12:27;13.10;99.90
5796;DHT22;2924;51.458;7.046;2022-11-15T16:14:53;13.10;99.90
5796;DHT22;2924;51.458;7.046;2022-11-15T16:17:20;13.00;99.90
5796;DHT22;2924;51.458;7.046;2022-11-15T16:19:46;13.00;99.90
5796;DHT22;2924;51.458;7.046;2022-11-15T16:22:12;13.00;99.90
5796;DHT22;2924;51.458;7.046;2022-11-15T16:24:38;13.00;99.90
5796;DHT22;2924;51.458;7.046;2022-11-15T16:27:03;13.00;99.90
5796;DHT22;2924;51.458;7.046;2022-11-15T16:29:29;13.00;99.90
5796;DHT22;2924;51.458;7.046;2022-11-15T16:31:55;12.90;99.90
5796;DHT22;2924;51.458;7.046;2022-11-15T16:34:21;13.00;99.90
5796;DHT22;2924;51.458;7.046;2022-11-15T16:36:47;13.00;99.90
5796;DHT22;2924;51.458;7.046;2022-11-15T16:39:13;13.00;99.90
5796;DHT22;2924;51.458;7.046;2022-11-15T16:41:41;13.10;99.90
5796;DHT22;2924;51.458;7.046;2022-11-15T16:44:08;13.10;99.90
5796;DHT22;2924;51.458;7.046;2022-11-15T16:46:34;13.10;99.90
5796;DHT22;2924;51.458;7.046;2022-11-15T16:49:00;13.10;99.90
5796;DHT22;2924;51.458;7.046;2022-11-15T16:51:25;13.10;99.90
5796;DHT22;2924;51.458;7.046;2022-11-15T16:53:51;13.00;99.90
5796;DHT22;2924;51.458;7.046;2022-11-15T16:58:49;13.10;99.90
5796;DHT22;2924;51.458;7.046;2022-11-15T17:01:18;13.10;99.90
5796;DHT22;2924;51.458;7.046;2022-11-15T17:03:44;13.10;99.90
5796;DHT22;2924;51.458;7.046;2022-11-15T17:06:10;13.10;99.90
5796;DHT22;2924;51.458;7.046;2022-11-15T17:08:37;13.20;99.90
5796;DHT22;2924;51.458;7.046;2022-11-15T17:11:10;13.10;99.90
5796;DHT22;2924;51.458;7.046;2022-11-15T17:13:37;13.10;99.90
5796;DHT22;2924;51.458;7.046;2022-11-15T17:16:13;13.20;99.90
5796;DHT22;2924;51.458;7.046;2022-11-15T17:18:40;13.20;99.90
5796;DHT22;2924;51.458;7.046;2022-11-15T17:21:09;13.20;99.90
5796;DHT22;2924;51.458;7.046;2022-11-15T17:23:36;13.20;99.90
5796;DHT22;2924;51.458;7.046;2022-11-15T17:26:03;13.20;99.90
5796;DHT22;2924;51.458;7.046;2022-11-15T17:28:33;13.30;99.90
5796;DHT22;2924;51.458;7.046;2022-11-15T17:31:00;13.20;99.90
5796;DHT22;2924;51.458;7.046;2022-11-15T17:33:26;13.30;99.90
5796;DHT22;2924;51.458;7.046;2022-11-15T17:36:00;13.30;99.90
5796;DHT22;2924;51.458;7.046;2022-11-15T17:38:26;13.30;99.90
5796;DHT22;2924;51.458;7.046;2022-11-15T17:41:08;13.30;99.90
5796;DHT22;2924;51.458;7.046;2022-11-15T17:43:35;13.30;99.90
5796;DHT22;2924;51.458;7.046;2022-11-15T17:46:12;13.30;99.90
5796;DHT22;2924;51.458;7.046;2022-11-15T17:48:38;13.30;99.90
5796;DHT22;2924;51.458;7.046;2022-11-15T17:51:06;13.40;99.90
5796;DHT22;2924;51.458;7.046;2022-11-15T17:53:37;13.30;99.90
5796;DHT22;2924;51.458;7.046;2022-11-15T17:56:11;13.30;99.90
5796;DHT22;2924;51.458;7.046;2022-11-15T17:58:38;13.30;99.90
5796;DHT22;2924;51.458;7.046;2022-11-15T18:03:50;13.40;99.90
5796;DHT22;2924;51.458;7.046;2022-11-15T18:06:16;13.40;99.90
5796;DHT22;2924;51.458;7.046;2022-11-15T18:08:44;13.40;99.90
5796;DHT22;2924;51.458;7.046;2022-11-15T18:11:20;13.40;99.90